This is the latest recevied weather packets stored in our database for station/object IU7LMH-13. If no packets are shown the sender has not sent any weather packets the latest 10 day(s).
| Time | Temp. | Humidity | Pressure | Rain* | Wind** | Luminosity | Snow |
|---|---|---|---|---|---|---|---|
| 1777869944 | 12.22° C | 78% | 1018.5 hPa | 0 mm | - | - | - |
| 1777869697 | 11.67° C | 80% | 1018.5 hPa | 0 mm | - | - | - |
| 1777868857 | 11.11° C | 80% | 1018.4 hPa | 0 mm | - | - | - |
| 1777868259 | 10.56° C | 80% | 1018.3 hPa | 0 mm | - | - | - |
| 1777867897 | 10.56° C | 80% | 1018.1 hPa | 0 mm | - | - | - |
| 1777865978 | 10.56° C | 79% | 1018 hPa | 0 mm | - | - | - |
| 1777865617 | 10.56° C | 80% | 1017.8 hPa | 0 mm | - | - | - |
| 1777864057 | 10° C | 83% | 1018 hPa | 0 mm | - | - | - |
| 1777863459 | 10° C | 84% | 1018.1 hPa | 0 mm | - | - | - |
| 1777862498 | 9.44° C | 84% | 1018 hPa | 0 mm | - | - | - |
| 1777861898 | 9.44° C | 84% | 1018.2 hPa | 0 mm | - | - | - |
| 1777860218 | 9.44° C | 82% | 1018.3 hPa | 0 mm | - | - | - |
| 1777859018 | 11.11° C | 79% | 1018.1 hPa | 0 mm | - | - | - |
| 1777858542 | 11.67° C | 79% | 1017.9 hPa | 0 mm | - | - | - |
| 1777857457 | 11.11° C | 78% | 1018 hPa | 0 mm | - | - | - |
| 1777855657 | 12.22° C | 76% | 1018 hPa | 0 mm | - | - | - |
| 1777855179 | 12.78° C | 73% | 1017.9 hPa | 0 mm | - | - | - |
| 1777854577 | 12.78° C | 73% | 1017.9 hPa | 0 mm | - | - | - |
| 1777854458 | 13.33° C | 73% | 1018 hPa | 0 mm | - | - | - |
| 1777854217 | 13.33° C | 73% | 1017.9 hPa | 0 mm | - | - | - |
| 1777853858 | 12.78° C | 73% | 1018 hPa | 0 mm | - | - | - |
| 1777853744 | 12.78° C | 73% | 1018 hPa | 0 mm | - | - | - |
| 1777853616 | 12.78° C | 73% | 1018.1 hPa | 0 mm | - | - | - |
| 1777853257 | 13.33° C | 72% | 1018.1 hPa | 0 mm | - | - | - |
| 1777851096 | 13.33° C | 72% | 1018.1 hPa | 0 mm | - | - | - |
* Rain latest hour (hover to see other rain measurements)
** Current wind speed in m/s (hover to see current wind gust speed)